Time;durP1;ratioP1;P1;durP2;ratioP2;P2;SDS_P1;SDS_P2;PMS_P1;PMS_P2;Temp;Humidity;BMP_temperature;BMP_pressure;BME280_temperature;BME280_humidity;BME280_pressure;Samples;Min_cycle;Max_cycle;Signal;HPM_P1;HPM_P2
2021/12/11 00:02:35;;;;;;;0.40;0.40;;;;;;;6.19;100.00;99245.19;6275538;22;20094;-58
2021/12/11 00:05:38;;;;;;;2.50;0.17;;;;;;;6.16;100.00;99251.63;6275265;22;20026;-57
2021/12/11 00:08:43;;;;;;;0.45;0.45;;;;;;;6.12;100.00;99245.50;6275577;22;20034;-57
2021/12/11 00:11:51;;;;;;;0.30;0.30;;;;;;;6.07;100.00;99255.16;6274563;22;20050;-57
2021/12/11 00:15:02;;;;;;;30.48;1.88;;;;;;;6.02;100.00;99258.53;6275491;22;20089;-56
2021/12/11 00:18:13;;;;;;;0.10;0.10;;;;;;;5.93;100.00;99266.78;6275205;22;20058;-57
2021/12/11 00:21:18;;;;;;;0.40;0.40;;;;;;;5.84;100.00;99269.56;6274929;22;20386;-57
2021/12/11 00:24:26;;;;;;;0.10;0.10;;;;;;;5.79;100.00;99272.91;6274734;22;20401;-57
2021/12/11 00:27:29;;;;;;;0.30;0.30;;;;;;;5.71;100.00;99279.16;6256409;22;20027;-57
2021/12/11 00:33:35;;;;;;;1.33;0.68;;;;;;;5.59;100.00;99272.53;6275397;22;20027;-57
2021/12/11 00:36:38;;;;;;;0.70;0.50;;;;;;;5.51;100.00;99276.81;6274648;22;20475;-57
2021/12/11 00:39:51;;;;;;;0.50;0.50;;;;;;;5.50;100.00;99286.31;6275565;22;20021;-56
2021/12/11 00:42:57;;;;;;;0.30;0.20;;;;;;;5.50;100.00;99286.31;6274966;22;20027;-57
2021/12/11 00:46:02;;;;;;;1.70;0.80;;;;;;;5.46;100.00;99299.47;6274750;22;20041;-57
2021/12/11 00:49:11;;;;;;;3.03;1.05;;;;;;;5.43;100.00;99299.63;6275025;22;20031;-57
2021/12/11 00:52:14;;;;;;;0.55;0.55;;;;;;;5.49;100.00;99295.81;6275358;22;20050;-57
2021/12/11 00:55:26;;;;;;;5.70;1.10;;;;;;;5.57;100.00;99299.06;6275065;22;20336;-57
2021/12/11 00:58:32;;;;;;;0.35;0.35;;;;;;;5.70;100.00;99297.72;6275094;22;20054;-56
2021/12/11 01:01:43;;;;;;;2.30;0.63;;;;;;;5.76;100.00;99293.13;6275106;22;20167;-57
2021/12/11 01:04:47;;;;;;;1.63;0.63;;;;;;;5.85;100.00;99304.25;6274976;22;20023;-57
2021/12/11 01:07:50;;;;;;;0.82;0.82;;;;;;;5.94;100.00;99317.31;6274821;22;20034;-57
2021/12/11 01:11:11;;;;;;;0.40;0.32;;;;;;;6.04;100.00;99314.09;6273550;22;20046;-57
2021/12/11 01:14:50;;;;;;;0.38;0.38;;;;;;;6.06;100.00;99330.25;6274444;22;20353;-57
2021/12/11 01:21:31;;;;;;;0.60;0.60;;;;;;;6.08;100.00;99322.28;6274661;22;20099;-58
2021/12/11 01:24:45;;;;;;;0.17;0.17;;;;;;;6.19;100.00;99327.34;6273998;22;20081;-58
2021/12/11 01:27:55;;;;;;;0.57;0.40;;;;;;;6.16;100.00;99347.63;6274622;22;20031;-58
2021/12/11 01:31:00;;;;;;;4.60;0.63;;;;;;;6.15;100.00;99346.09;6274700;22;20035;-58
2021/12/11 01:34:08;;;;;;;0.35;0.35;;;;;;;6.16;100.00;99347.63;6275152;22;20062;-58
2021/12/11 01:37:11;;;;;;;0.88;0.88;;;;;;;6.18;100.00;99347.91;6275077;22;20443;-58
2021/12/11 01:40:19;;;;;;;0.20;0.20;;;;;;;6.13;100.00;99362.38;6274733;22;20390;-58
2021/12/11 01:43:25;;;;;;;0.52;0.30;;;;;;;6.05;100.00;99354.34;6275518;22;20107;-58
2021/12/11 01:46:28;;;;;;;0.20;0.20;;;;;;;6.05;100.00;99359.88;6275155;22;20070;-56
2021/12/11 01:49:34;;;;;;;5.53;0.93;;;;;;;6.05;100.00;99367.41;6274233;22;20027;-58
2021/12/11 01:52:44;;;;;;;10.70;0.98;;;;;;;6.06;100.00;99374.47;6275309;22;20023;-58
2021/12/11 01:56:07;;;;;;;0.40;0.40;;;;;;;6.07;100.00;99387.84;6275654;22;20022;-58
2021/12/11 01:59:15;;;;;;;0.38;0.38;;;;;;;6.11;100.00;99388.47;6275976;22;20348;-56
2021/12/11 02:02:45;;;;;;;0.30;0.30;;;;;;;6.10;100.00;99389.69;6276612;22;20069;-58
2021/12/11 02:05:49;;;;;;;0.10;0.10;;;;;;;6.09;100.00;99407.50;6276242;22;20482;-58
2021/12/11 02:08:51;;;;;;;2.28;0.38;;;;;;;6.08;100.00;99417.03;6276546;22;20031;-58
2021/12/11 02:12:11;;;;;;;0.20;0.20;;;;;;;6.05;100.00;99423.47;6257450;22;20026;-58
2021/12/11 02:15:30;;;;;;;4.93;0.77;;;;;;;6.07;100.00;99426.53;6277837;22;20319;-52
2021/12/11 02:18:37;;;;;;;0.20;0.20;;;;;;;6.15;100.00;99423.50;6289923;22;20035;-50
2021/12/11 02:22:03;;;;;;;0.20;0.20;;;;;;;6.31;100.00;99423.22;6306739;22;20022;-50
2021/12/11 02:25:16;;;;;;;0.30;0.30;;;;;;;6.36;100.00;99419.84;6307630;22;20026;-50
2021/12/11 02:28:24;;;;;;;0.28;0.10;;;;;;;6.40;100.00;99428.78;6307842;22;20045;-50
2021/12/11 02:31:42;;;;;;;0.95;0.45;;;;;;;6.45;100.00;99425.41;6306804;22;20026;-50
2021/12/11 02:34:50;;;;;;;0.20;0.20;;;;;;;6.49;100.00;99429.56;6307555;22;20038;-50
2021/12/11 02:38:04;;;;;;;0.30;0.30;;;;;;;6.55;100.00;99426.97;6307227;22;20125;-50
2021/12/11 02:41:19;;;;;;;0.10;0.10;;;;;;;6.52;100.00;99433.44;6306890;22;20022;-50
2021/12/11 02:44:28;;;;;;;11.50;0.75;;;;;;;6.65;100.00;99436.81;6307594;22;20031;-50
2021/12/11 02:47:37;;;;;;;0.32;0.30;;;;;;;6.59;100.00;99439.41;6306981;22;20033;-50
2021/12/11 02:50:49;;;;;;;2.08;0.20;;;;;;;6.52;100.00;99447.25;6307491;22;20461;-50
2021/12/11 02:53:56;;;;;;;0.25;0.25;;;;;;;6.38;100.00;99440.31;6306766;22;20145;-50
2021/12/11 02:57:17;;;;;;;0.95;0.75;;;;;;;6.34;100.00;99444.44;6288140;22;20022;-50
2021/12/11 03:00:31;;;;;;;0.20;0.13;;;;;;;6.37;100.00;99449.03;6306785;22;20073;-50
2021/12/11 03:03:41;;;;;;;12.00;1.02;;;;;;;6.45;100.00;99445.56;6306551;22;20022;-50
2021/12/11 03:06:47;;;;;;;4.43;0.40;;;;;;;6.59;100.00;99449.72;6306584;22;20080;-50
2021/12/11 03:09:55;;;;;;;3.40;0.55;;;;;;;6.62;100.00;99448.81;6306537;22;20096;-50
2021/12/11 03:12:58;;;;;;;1.85;0.68;;;;;;;6.56;100.00;99453.41;6307258;22;20462;-50
2021/12/11 03:16:02;;;;;;;0.30;0.30;;;;;;;6.49;100.00;99456.47;6306634;22;20030;-50
2021/12/11 03:19:09;;;;;;;0.32;0.20;;;;;;;6.52;100.00;99461.09;6306984;22;20030;-50
2021/12/11 03:22:17;;;;;;;0.68;0.60;;;;;;;6.46;100.00;99469.19;6306679;22;20092;-50
2021/12/11 03:25:24;;;;;;;1.30;1.08;;;;;;;6.37;100.00;99454.56;6306693;22;20149;-50
2021/12/11 03:28:27;;;;;;;0.20;0.20;;;;;;;6.38;100.00;99461.66;6307248;22;20057;-50
2021/12/11 03:31:30;;;;;;;0.40;0.40;;;;;;;6.46;100.00;99462.91;6306944;22;20025;-50
2021/12/11 03:34:33;;;;;;;0.10;0.10;;;;;;;6.43;100.00;99463.81;6306541;22;20101;-51
2021/12/11 03:37:36;;;;;;;0.50;0.50;;;;;;;6.39;100.00;99463.22;6307080;22;20116;-50
2021/12/11 03:40:39;;;;;;;1.67;0.60;;;;;;;6.44;100.00;99470.88;6306342;22;20038;-50
2021/12/11 03:43:42;;;;;;;0.20;0.20;;;;;;;6.51;100.00;99459.53;6306598;22;20026;-50
2021/12/11 03:46:48;;;;;;;0.40;0.38;;;;;;;6.51;100.00;99463.09;6306235;22;20038;-50
2021/12/11 03:49:51;;;;;;;0.30;0.30;;;;;;;6.55;100.00;99460.94;6306213;22;20030;-51
2021/12/11 03:52:55;;;;;;;3.58;0.82;;;;;;;6.53;100.00;99462.63;6306754;22;20018;-50
2021/12/11 03:56:01;;;;;;;0.73;0.73;;;;;;;6.45;100.00;99466.91;6306786;22;20084;-50
2021/12/11 03:59:10;;;;;;;0.45;0.30;;;;;;;6.45;100.00;99467.69;6306224;22;20030;-50
2021/12/11 04:02:18;;;;;;;1.85;1.13;;;;;;;6.49;100.00;99475.81;6306926;22;20350;-50
2021/12/11 04:05:22;;;;;;;7.68;1.20;;;;;;;6.57;100.00;99474.31;6306801;22;20393;-50
2021/12/11 04:08:29;;;;;;;0.30;0.30;;;;;;;6.59;100.00;99482.91;6306800;22;20125;-50
2021/12/11 04:11:34;;;;;;;0.85;0.45;;;;;;;6.54;100.00;99478.00;6306341;22;20453;-50
2021/12/11 04:14:41;;;;;;;0.20;0.20;;;;;;;6.48;100.00;99468.75;6306092;22;20018;-50
2021/12/11 04:17:45;;;;;;;0.43;0.43;;;;;;;6.37;100.00;99477.47;6306567;22;20392;-50
2021/12/11 04:20:49;;;;;;;1.48;0.30;;;;;;;6.26;100.00;99487.44;6306131;22;20025;-50
2021/12/11 04:23:52;;;;;;;1.50;0.50;;;;;;;6.19;100.00;99494.00;6306304;22;20098;-50
2021/12/11 04:26:59;;;;;;;2.30;1.00;;;;;;;6.16;100.00;99500.44;6305953;22;20025;-50
2021/12/11 04:30:08;;;;;;;0.10;0.10;;;;;;;6.18;100.00;99503.50;6305527;22;20026;-50
2021/12/11 04:33:11;;;;;;;0.77;0.77;;;;;;;6.21;100.00;99494.31;6306859;22;20453;-50
2021/12/11 04:36:19;;;;;;;0.32;0.20;;;;;;;6.27;100.00;99500.00;6306134;22;20026;-50
2021/12/11 04:39:25;;;;;;;0.25;0.25;;;;;;;6.25;100.00;99483.88;6306636;22;20076;-50
2021/12/11 04:42:52;;;;;;;0.32;0.32;;;;;;;6.27;100.00;99483.44;6306560;22;20099;-50
2021/12/11 04:46:04;;;;;;;0.57;0.57;;;;;;;6.31;100.00;99484.06;6306418;22;20053;-50
2021/12/11 04:49:25;;;;;;;0.75;0.47;;;;;;;6.38;100.00;99486.53;6306282;22;20428;-53
2021/12/11 04:52:35;;;;;;;0.25;0.25;;;;;;;6.44;100.00;99484.72;6305500;22;20077;-50
2021/12/11 04:56:01;;;;;;;1.10;0.30;;;;;;;6.52;100.00;99491.53;6306391;22;20022;-50
2021/12/11 05:06:36;;;;;;;0.13;0.13;;;;;;;6.43;100.00;99513.63;6305561;22;20091;-50
2021/12/11 05:09:35;;;;;;;0.25;0.17;;;;;;;6.43;100.00;99524.69;6305299;22;20056;-50
2021/12/11 05:12:38;;;;;;;0.43;0.43;;;;;;;6.52;100.00;99519.19;6306095;22;20027;-50
2021/12/11 05:15:45;;;;;;;0.73;0.60;;;;;;;6.63;100.00;99522.25;6305877;22;20117;-50
2021/12/11 05:18:48;;;;;;;0.25;0.22;;;;;;;6.61;100.00;99521.94;6305728;22;20390;-50
2021/12/11 05:21:51;;;;;;;0.10;0.10;;;;;;;6.63;100.00;99536.88;6305756;22;20069;-50
2021/12/11 05:24:56;;;;;;;0.75;0.30;;;;;;;6.64;100.00;99535.66;6306607;22;20025;-50
2021/12/11 05:27:59;;;;;;;1.40;0.35;;;;;;;6.63;100.00;99538.88;6307190;22;20095;-50
2021/12/11 05:31:06;;;;;;;0.30;0.30;;;;;;;6.60;100.00;99531.50;6308197;22;20038;-50
2021/12/11 05:34:09;;;;;;;0.68;0.28;;;;;;;6.57;100.00;99535.16;6308078;22;20026;-50
2021/12/11 05:37:12;;;;;;;0.52;0.30;;;;;;;6.60;100.00;99539.78;6308733;22;20025;-50
2021/12/11 05:40:21;;;;;;;4.07;0.63;;;;;;;6.58;100.00;99545.00;6289443;22;20025;-50
2021/12/11 05:43:27;;;;;;;0.73;0.73;;;;;;;6.57;100.00;99537.94;6308605;22;20141;-50
2021/12/11 05:46:30;;;;;;;0.20;0.20;;;;;;;6.57;100.00;99540.69;6308242;22;20459;-50
2021/12/11 05:49:35;;;;;;;2.90;0.40;;;;;;;6.53;100.00;99542.84;6307694;22;20081;-50
2021/12/11 05:52:39;;;;;;;5.97;1.08;;;;;;;6.51;100.00;99548.06;6307817;22;20053;-50
2021/12/11 05:55:46;;;;;;;2.70;1.05;;;;;;;6.41;100.00;99549.25;6307193;22;20048;-50
2021/12/11 06:01:57;;;;;;;0.30;0.30;;;;;;;6.30;100.00;99543.34;6307845;22;20038;-50
2021/12/11 06:05:01;;;;;;;6.90;0.60;;;;;;;6.19;100.00;99554.06;6307276;22;20026;-50
2021/12/11 06:08:04;;;;;;;1.13;0.60;;;;;;;6.15;100.00;99556.94;6307666;22;20026;-51
2021/12/11 06:11:10;;;;;;;0.93;0.50;;;;;;;6.16;100.00;99563.25;6307583;22;20026;-50
2021/12/11 06:14:16;;;;;;;2.83;0.63;;;;;;;6.15;100.00;99576.28;6307158;22;20021;-51
2021/12/11 06:17:24;;;;;;;0.25;0.25;;;;;;;6.13;100.00;99579.50;6306821;22;20053;-50
2021/12/11 06:20:29;;;;;;;7.70;0.45;;;;;;;6.20;100.00;99572.16;6307846;22;20049;-51
2021/12/11 06:23:32;;;;;;;0.75;0.65;;;;;;;6.22;100.00;99580.78;6307383;22;20077;-51
2021/12/11 06:26:35;;;;;;;15.52;0.65;;;;;;;6.26;100.00;99579.44;6307176;22;20141;-50
2021/12/11 06:29:38;;;;;;;0.10;0.10;;;;;;;6.25;100.00;99579.88;6307503;22;20075;-50
2021/12/11 06:32:42;;;;;;;25.13;1.45;;;;;;;6.25;100.00;99566.84;6307455;22;20030;-51
2021/12/11 06:36:05;;;;;;;0.75;0.65;;;;;;;6.22;100.00;99576.03;6306840;22;20319;-50
2021/12/11 06:39:17;;;;;;;0.57;0.50;;;;;;;6.19;100.00;99576.16;6306537;22;20026;-51
2021/12/11 06:42:20;;;;;;;0.10;0.10;;;;;;;6.19;100.00;99581.69;6307609;22;20026;-51
2021/12/11 06:45:26;;;;;;;0.38;0.38;;;;;;;6.16;100.00;99588.91;6307484;22;20025;-51
2021/12/11 06:48:29;;;;;;;2.15;1.95;;;;;;;6.19;100.00;99590.00;6307567;22;20026;-51
2021/12/11 06:51:32;;;;;;;20.52;0.75;;;;;;;6.20;100.00;99583.22;6307149;22;20025;-51
2021/12/11 06:54:36;;;;;;;0.10;0.10;;;;;;;6.30;100.00;99590.38;6306448;22;20023;-51
2021/12/11 06:57:39;;;;;;;0.30;0.28;;;;;;;6.31;100.00;99584.38;6307340;22;20037;-51
2021/12/11 07:00:42;;;;;;;0.38;0.38;;;;;;;6.23;100.00;99574.03;6307435;22;20053;-51
2021/12/11 07:03:45;;;;;;;0.68;0.15;;;;;;;6.22;100.00;99586.31;6307465;22;20507;-51
2021/12/11 07:06:52;;;;;;;0.35;0.22;;;;;;;6.30;100.00;99579.31;6307047;22;20327;-52
2021/12/11 07:09:55;;;;;;;0.10;0.10;;;;;;;6.29;100.00;99575.75;6306607;22;20064;-51
2021/12/11 07:12:58;;;;;;;0.30;0.30;;;;;;;6.30;100.00;99588.38;6306606;22;20069;-51
2021/12/11 07:16:01;;;;;;;0.32;0.32;;;;;;;6.23;100.00;99582.34;6306990;22;20090;-51
2021/12/11 07:19:06;;;;;;;0.60;0.60;;;;;;;6.20;100.00;99594.28;6307205;22;20038;-51
2021/12/11 07:22:10;;;;;;;11.05;1.27;;;;;;;6.13;100.00;99594.56;6306610;22;20463;-51
2021/12/11 07:25:30;;;;;;;0.28;0.28;;;;;;;6.16;100.00;99586.13;6306429;22;20072;-51
2021/12/11 07:28:33;;;;;;;1.95;0.73;;;;;;;6.16;100.00;99588.13;6287102;22;20080;-51
2021/12/11 07:31:37;;;;;;;1.52;1.00;;;;;;;6.19;100.00;99598.28;6306642;22;20364;-51
2021/12/11 07:34:41;;;;;;;2.28;0.65;;;;;;;6.27;100.00;99611.41;6306350;22;20054;-51
2021/12/11 07:37:49;;;;;;;21.02;1.35;;;;;;;6.33;100.00;99603.28;6306352;22;20053;-51
2021/12/11 07:40:58;;;;;;;0.20;0.20;;;;;;;6.39;100.00;99612.53;6306351;22;20071;-51
2021/12/11 07:44:01;;;;;;;0.20;0.20;;;;;;;6.36;100.00;99616.97;6306535;22;20095;-51
2021/12/11 07:47:05;;;;;;;2.08;0.40;;;;;;;6.42;100.00;99611.63;6306865;22;20018;-50
2021/12/11 07:50:08;;;;;;;0.85;0.38;;;;;;;6.47;100.00;99616.56;6306575;22;20104;-50
2021/12/11 07:53:12;;;;;;;0.20;0.20;;;;;;;6.48;100.00;99626.41;6307023;22;20094;-50
2021/12/11 07:56:20;;;;;;;0.10;0.10;;;;;;;6.48;100.00;99620.88;6306718;22;20072;-51
2021/12/11 07:59:23;;;;;;;0.20;0.20;;;;;;;6.51;100.00;99619.97;6306536;22;20022;-51
2021/12/11 08:02:26;;;;;;;1.63;0.68;;;;;;;6.52;100.00;99627.06;6306845;22;20385;-51
2021/12/11 08:05:30;;;;;;;0.10;0.10;;;;;;;6.52;100.00;99627.06;6306164;22;20026;-50
2021/12/11 08:08:35;;;;;;;0.20;0.20;;;;;;;6.52;100.00;99629.81;6306262;22;20053;-51
2021/12/11 08:11:38;;;;;;;0.45;0.45;;;;;;;6.49;100.00;99622.44;6305984;22;20054;-51
2021/12/11 08:14:42;;;;;;;0.30;0.15;;;;;;;6.57;100.00;99623.69;6305703;22;20060;-51
2021/12/11 08:17:52;;;;;;;0.40;0.20;;;;;;;6.58;100.00;99628.00;6306202;22;20076;-51
2021/12/11 08:20:56;;;;;;;0.88;0.75;;;;;;;6.64;100.00;99623.41;6306258;22;20029;-51
2021/12/11 08:24:04;;;;;;;1.80;0.45;;;;;;;6.65;100.00;99627.72;6305786;22;20336;-50
2021/12/11 08:27:17;;;;;;;0.95;0.80;;;;;;;6.67;100.00;99617.72;6306348;22;20044;-51
2021/12/11 08:30:21;;;;;;;9.18;1.23;;;;;;;6.66;100.00;99626.50;6306137;22;20080;-51
2021/12/11 08:33:25;;;;;;;0.30;0.30;;;;;;;6.66;100.00;99637.56;6306491;22;20080;-51
2021/12/11 08:36:28;;;;;;;3.63;1.23;;;;;;;6.79;100.00;99641.00;6306046;22;20095;-51
2021/12/11 08:39:32;;;;;;;2.85;0.63;;;;;;;6.74;100.00;99645.13;6305967;22;20062;-51
2021/12/11 08:42:35;;;;;;;11.85;0.98;;;;;;;6.81;100.00;99647.63;6306162;22;20077;-51
2021/12/11 08:45:56;;;;;;;9.82;1.52;;;;;;;6.96;100.00;99645.06;6306336;22;20030;-51
2021/12/11 08:49:08;;;;;;;7.32;1.95;;;;;;;7.12;100.00;99636.53;6306059;22;20029;-51
2021/12/11 08:52:13;;;;;;;20.75;2.28;;;;;;;7.22;100.00;99643.63;6305847;22;20080;-51
2021/12/11 08:55:26;;;;;;;9.45;2.83;;;;;;;7.24;100.00;99638.38;6306815;22;20443;-51
2021/12/11 08:58:29;;;;;;;6.40;2.45;;;;;;;7.29;100.00;99643.34;6306083;22;20053;-51
2021/12/11 09:01:38;;;;;;;5.15;0.95;;;;;;;7.25;100.00;99651.03;6307099;22;20077;-51
2021/12/11 09:05:08;;;;;;;0.90;0.80;;;;;;;7.29;100.00;99635.03;6307968;22;20549;-51
2021/12/11 09:08:18;;;;;;;0.95;0.95;;;;;;;7.28;100.00;99641.78;6307575;22;20084;-51
2021/12/11 09:11:28;;;;;;;0.15;0.15;;;;;;;7.31;100.00;99638.09;6307929;22;20077;-51
2021/12/11 09:14:43;;;;;;;1.75;0.60;;;;;;;7.36;100.00;99650.59;6307665;22;20077;-51
2021/12/11 09:18:02;;;;;;;5.68;0.30;;;;;;;7.41;100.00;99659.03;6307575;22;20562;-51
2021/12/11 09:21:30;;;;;;;0.80;0.70;;;;;;;7.52;100.00;99656.59;6307216;22;20056;-51
2021/12/11 09:24:36;;;;;;;0.90;0.45;;;;;;;7.57;100.00;99656.00;6307979;22;20462;-51
2021/12/11 09:27:57;;;;;;;0.68;0.68;;;;;;;7.59;100.00;99653.53;6308013;22;20085;-51
2021/12/11 09:31:11;;;;;;;0.30;0.30;;;;;;;7.56;100.00;99668.31;6307825;22;20516;-50
2021/12/11 09:34:20;;;;;;;3.00;0.73;;;;;;;7.60;100.00;99665.41;6307994;22;20165;-51
2021/12/11 09:37:25;;;;;;;1.55;0.50;;;;;;;7.70;100.00;99668.94;6308138;22;20116;-51
2021/12/11 09:40:37;;;;;;;0.73;0.73;;;;;;;7.74;100.00;99669.56;6307187;22;20026;-51
2021/12/11 09:43:42;;;;;;;;;;;;;;;7.71;100.00;99679.56;6307904;22;20097;-51
2021/12/11 09:46:52;;;;;;;0.95;0.40;;;;;;;7.74;100.00;99670.34;6306582;22;19914;-52
2021/12/11 09:50:03;;;;;;;3.38;0.75;;;;;;;7.76;100.00;99673.41;6307496;22;20075;-51
2021/12/11 09:53:06;;;;;;;1.02;0.98;;;;;;;7.80;100.00;99667.72;6307080;22;20095;-52
2021/12/11 09:56:19;;;;;;;0.90;0.30;;;;;;;7.82;100.00;99677.09;6307979;22;20482;-52
2021/12/11 09:59:25;;;;;;;0.40;0.25;;;;;;;7.88;100.00;99682.81;6308137;22;20030;-51
2021/12/11 10:02:31;;;;;;;1.08;0.80;;;;;;;7.92;100.00;99675.13;6307358;22;20054;-51
2021/12/11 10:05:50;;;;;;;0.20;0.20;;;;;;;7.91;100.00;99670.78;6307423;22;20025;-51
2021/12/11 10:09:17;;;;;;;12.90;0.43;;;;;;;7.91;100.00;99668.03;6307272;22;20030;-52
2021/12/11 10:12:28;;;;;;;0.63;0.50;;;;;;;7.96;100.00;99672.97;6307370;22;20018;-52
2021/12/11 10:15:34;;;;;;;13.13;1.30;;;;;;;7.97;100.00;99671.75;6305896;22;20041;-79
2021/12/11 10:18:38;;;;;;;8.00;0.65;;;;;;;8.05;100.00;99672.97;6306022;22;20046;-79
2021/12/11 10:21:52;;;;;;;0.52;0.30;;;;;;;8.12;100.00;99672.66;6305474;22;20022;-79
2021/12/11 10:24:56;;;;;;;8.30;0.82;;;;;;;8.17;100.00;99685.91;6305913;22;20076;-79
2021/12/11 10:28:02;;;;;;;0.20;0.20;;;;;;;8.23;100.00;99678.50;6306093;22;20073;-77
2021/12/11 10:31:10;;;;;;;0.57;0.50;;;;;;;8.24;100.00;99680.03;6322787;22;20639;-77
2021/12/11 10:34:19;;;;;;;0.20;0.20;;;;;;;8.34;100.00;99689.91;6305592;22;20110;-78
2021/12/11 10:37:29;;;;;;;5.93;1.33;;;;;;;8.35;100.00;99685.91;6304756;22;20464;-78
2021/12/11 10:40:46;;;;;;;2.10;0.40;;;;;;;8.37;100.00;99672.34;6305344;22;20475;-78
2021/12/11 10:43:58;;;;;;;2.28;0.20;;;;;;;8.37;100.00;99675.13;6305405;22;20073;-78
2021/12/11 10:47:11;;;;;;;0.68;0.68;;;;;;;8.28;100.00;99669.59;6304458;22;20081;-78
2021/12/11 10:50:26;;;;;;;4.57;1.02;;;;;;;8.32;100.00;99659.88;6305310;22;20057;-78
2021/12/11 10:53:30;;;;;;;1.08;0.47;;;;;;;8.40;100.00;99654.78;6322180;22;20357;-77
2021/12/11 10:56:34;;;;;;;6.45;0.85;;;;;;;8.48;100.00;99647.66;6305109;22;20026;-78
2021/12/11 10:59:40;;;;;;;9.73;0.60;;;;;;;8.52;100.00;99639.94;6305513;22;20022;-78
2021/12/11 11:02:44;;;;;;;0.52;0.52;;;;;;;8.49;100.00;99643.63;6305460;22;20102;-78
2021/12/11 11:05:47;;;;;;;0.43;0.40;;;;;;;8.48;100.00;99644.13;6304814;22;20073;-78
2021/12/11 11:08:50;;;;;;;1.50;1.40;;;;;;;8.53;100.00;99651.81;6304712;22;20108;-77
2021/12/11 11:11:57;;;;;;;5.70;0.75;;;;;;;8.61;100.00;99642.69;6305390;22;20061;-77
2021/12/11 11:15:00;;;;;;;2.78;0.50;;;;;;;8.64;100.00;99632.66;6321121;22;20033;-77
2021/12/11 11:18:06;;;;;;;1.85;0.30;;;;;;;8.66;100.00;99632.97;6274083;22;20031;-76
2021/12/11 11:21:16;;;;;;;1.23;0.40;;;;;;;8.83;100.00;99634.91;6274484;22;20103;-75
2021/12/11 11:24:19;;;;;;;1.30;0.32;;;;;;;8.90;100.00;99634.56;6273784;22;20077;-76
2021/12/11 11:27:22;;;;;;;12.70;1.17;;;;;;;8.96;100.00;99627.16;6260476;22;20136;-76
2021/12/11 11:30:32;;;;;;;0.55;0.30;;;;;;;9.05;100.00;99624.28;6243728;23;20027;-76
2021/12/11 11:33:37;;;;;;;9.75;0.93;;;;;;;9.03;100.00;99621.22;6243809;23;20472;-76
2021/12/11 11:36:41;;;;;;;4.63;0.60;;;;;;;9.10;100.00;99612.56;6243872;22;20453;-76
2021/12/11 11:39:44;;;;;;;2.28;0.65;;;;;;;9.08;100.00;99611.47;6243417;23;20134;-77
2021/12/11 11:42:46;;;;;;;0.17;0.17;;;;;;;9.16;100.00;99609.88;6242489;23;20466;-77
2021/12/11 11:45:52;;;;;;;0.30;0.30;;;;;;;9.15;100.00;99603.59;6242880;22;20066;-77
2021/12/11 11:48:58;;;;;;;0.40;0.40;;;;;;;9.20;100.00;99601.41;6243104;23;20397;-77
2021/12/11 11:52:10;;;;;;;4.00;0.73;;;;;;;9.20;100.00;99598.63;6241728;23;20090;-77
2021/12/11 11:55:23;;;;;;;0.10;0.10;;;;;;;9.23;100.00;99598.44;6243309;22;20043;-78
2021/12/11 11:58:28;;;;;;;3.22;0.35;;;;;;;9.28;100.00;99599.78;6243566;23;20354;-77
2021/12/11 12:01:38;;;;;;;1.48;0.40;;;;;;;9.30;100.00;99586.97;6242623;23;20100;-77
2021/12/11 12:04:41;;;;;;;0.43;0.20;;;;;;;9.29;100.00;99584.66;6243070;22;20461;-77
2021/12/11 12:07:46;;;;;;;2.55;1.02;;;;;;;9.35;100.00;99580.00;6242153;23;20052;-78
2021/12/11 12:10:51;;;;;;;0.10;0.10;;;;;;;9.39;100.00;99577.78;6242862;23;20027;-77
2021/12/11 12:13:54;;;;;;;0.65;0.65;;;;;;;9.41;100.00;99564.97;6243209;23;20078;-77
2021/12/11 12:16:58;;;;;;;0.45;0.30;;;;;;;9.42;100.00;99571.31;6243530;23;20031;-76
2021/12/11 12:20:04;;;;;;;16.92;1.55;;;;;;;9.47;100.00;99578.97;6242783;23;20050;-77
2021/12/11 12:23:09;;;;;;;4.13;0.32;;;;;;;9.37;100.00;99569.16;6243234;23;20026;-75
2021/12/11 12:26:18;;;;;;;2.20;0.98;;;;;;;9.41;100.00;99564.97;6243561;22;20030;-82
2021/12/11 12:29:21;;;;;;;1.50;0.85;;;;;;;9.51;100.00;99562.88;6243222;23;20481;-80
2021/12/11 12:32:29;;;;;;;1.13;1.02;;;;;;;9.50;100.00;99550.22;6242351;23;20062;-81
2021/12/11 12:35:33;;;;;;;2.15;1.17;;;;;;;9.53;100.00;99554.84;6241640;22;20027;-82
2021/12/11 12:38:38;;;;;;;0.85;0.57;;;;;;;9.50;100.00;99545.44;6241990;23;20054;-82
2021/12/11 12:42:04;;;;;;;2.03;0.57;;;;;;;9.47;100.00;99545.63;6242388;23;20064;-81
2021/12/11 12:45:16;;;;;;;0.82;0.40;;;;;;;9.48;100.00;99561.06;6242691;22;20046;-80
2021/12/11 12:48:22;;;;;;;8.15;1.23;;;;;;;9.49;100.00;99559.81;6259835;22;20027;-81
2021/12/11 12:51:27;;;;;;;2.83;0.73;;;;;;;9.54;100.00;99550.81;6243454;23;20063;-80
2021/12/11 12:54:30;;;;;;;0.63;0.63;;;;;;;9.58;100.00;99551.38;6243205;23;20043;-81
2021/12/11 12:57:38;;;;;;;9.98;1.25;;;;;;;9.64;100.00;99546.69;6242136;23;20027;-82
2021/12/11 13:00:55;;;;;;;0.77;0.73;;;;;;;9.65;100.00;99545.47;6243640;23;20027;-83
2021/12/11 13:04:02;;;;;;;2.22;0.98;;;;;;;9.57;100.00;99533.94;6242218;23;20077;-81
2021/12/11 13:07:08;;;;;;;3.80;1.27;;;;;;;9.65;100.00;99528.78;6260114;22;20027;-81
2021/12/11 13:10:18;;;;;;;3.45;1.67;;;;;;;9.61;100.00;99517.09;6243018;23;20023;-81
2021/12/11 13:13:24;;;;;;;4.78;1.27;;;;;;;9.64;100.00;99513.34;6244408;23;20383;-84
2021/12/11 13:16:32;;;;;;;5.82;2.00;;;;;;;9.63;100.00;99507.03;6244263;22;20049;-83
2021/12/11 13:19:40;;;;;;;1.75;1.48;;;;;;;9.69;100.00;99507.91;6243773;23;20027;-84
2021/12/11 13:22:45;;;;;;;3.88;0.63;;;;;;;9.76;100.00;99512.31;6244085;23;20582;-84
2021/12/11 13:25:59;;;;;;;6.80;1.55;;;;;;;9.78;100.00;99509.81;6244208;22;20480;-85
2021/12/11 13:29:05;;;;;;;1.70;0.63;;;;;;;9.81;100.00;99503.31;6244712;23;20027;-84
2021/12/11 13:32:17;;;;;;;8.05;1.33;;;;;;;9.83;100.00;99495.25;6243313;23;20082;-83
2021/12/11 13:35:24;;;;;;;2.38;0.80;;;;;;;9.85;100.00;99504.63;6243339;22;20027;-82
2021/12/11 13:38:31;;;;;;;4.07;0.98;;;;;;;9.87;100.00;99493.06;6243238;23;20095;-82
2021/12/11 13:41:39;;;;;;;2.67;0.90;;;;;;;9.90;100.00;99494.84;6243031;23;20046;-81
2021/12/11 13:44:44;;;;;;;1.58;0.75;;;;;;;9.89;100.00;99499.66;6241173;22;20031;-82
2021/12/11 13:47:48;;;;;;;2.03;1.38;;;;;;;9.86;100.00;99489.50;6242012;23;20530;-81
2021/12/11 13:50:57;;;;;;;1.48;0.63;;;;;;;9.85;100.00;99481.63;6245267;23;20373;-83
2021/12/11 13:54:00;;;;;;;1.40;1.25;;;;;;;9.85;100.00;99476.81;6261682;22;20027;-80
2021/12/11 13:57:07;;;;;;;1.55;0.85;;;;;;;9.86;100.00;99483.16;6244767;23;20023;-81
2021/12/11 14:00:20;;;;;;;11.25;1.58;;;;;;;9.89;100.00;99487.78;6245146;23;20457;-82
2021/12/11 14:03:26;;;;;;;1.23;1.10;;;;;;;9.76;100.00;99487.28;6243960;23;20477;-82
2021/12/11 14:06:31;;;;;;;4.63;3.13;;;;;;;9.66;100.00;99474.69;6243469;22;20031;-81
2021/12/11 14:09:36;;;;;;;1.67;1.15;;;;;;;9.72;100.00;99483.94;6242699;23;20469;-81
2021/12/11 14:12:39;;;;;;;7.75;1.67;;;;;;;9.78;100.00;99482.78;6244536;23;20023;-81
2021/12/11 14:15:44;;;;;;;11.27;1.30;;;;;;;9.78;100.00;99493.13;6244783;22;20519;-80
2021/12/11 14:18:46;;;;;;;5.03;1.13;;;;;;;9.73;100.00;99482.66;6245200;23;20027;-80
2021/12/11 14:21:50;;;;;;;13.13;2.15;;;;;;;9.65;100.00;99485.09;6245845;23;20042;-81
2021/12/11 14:24:53;;;;;;;4.15;2.17;;;;;;;9.62;100.00;99479.69;6246068;22;20074;-82
2021/12/11 14:27:57;;;;;;;2.22;0.88;;;;;;;9.62;100.00;99471.34;6244936;23;20039;-81
2021/12/11 14:31:07;;;;;;;6.50;1.40;;;;;;;9.57;100.00;99477.59;6246853;23;20023;-80
2021/12/11 14:34:10;;;;;;;5.32;2.67;;;;;;;9.56;100.00;99464.94;6245131;23;20027;-81
2021/12/11 14:37:14;;;;;;;10.10;1.30;;;;;;;9.58;100.00;99448.53;6245692;23;20027;-81
2021/12/11 14:40:20;;;;;;;0.73;0.63;;;;;;;9.56;100.00;99459.38;6244525;23;20026;-82
2021/12/11 14:43:23;;;;;;;3.83;2.30;;;;;;;9.59;100.00;99453.63;6243385;23;20024;-82
2021/12/11 14:46:30;;;;;;;3.40;1.02;;;;;;;9.66;100.00;99463.59;6244107;22;20046;-80
2021/12/11 14:49:34;;;;;;;3.30;0.90;;;;;;;9.71;100.00;99460.91;6242642;23;20039;-80
2021/12/11 14:52:38;;;;;;;12.65;1.48;;;;;;;9.73;100.00;99468.78;6244458;23;20481;-80
2021/12/11 14:55:47;;;;;;;12.55;1.10;;;;;;;9.74;100.00;99459.19;6243902;22;20035;-81
2021/12/11 14:58:50;;;;;;;4.30;1.38;;;;;;;9.83;100.00;99457.06;6244049;23;20022;-86
2021/12/11 15:02:01;;;;;;;7.38;2.17;;;;;;;9.85;100.00;99459.38;6244877;23;20141;-87